Time;durP1;ratioP1;P1;durP2;ratioP2;P2;SDS_P1;SDS_P2;PMS_P1;PMS_P2;Temp;Humidity;BMP_temperature;BMP_pressure;BME280_temperature;BME280_humidity;BME280_pressure;Samples;Min_cycle;Max_cycle;Signal;HPM_P1;HPM_P2
2023/08/13 00:01:52;;;;;;;;;13.00;12.50;;;;;21.71;100.00;98980.03;6312132;27;96326;-62
2023/08/13 00:04:55;;;;;;;;;13.00;13.00;;;;;21.66;100.00;98974.63;6296615;27;98497;-62
2023/08/13 00:07:58;;;;;;;;;13.25;13.00;;;;;21.71;100.00;98983.63;6281664;27;96338;-62
2023/08/13 00:11:08;;;;;;;;;15.75;13.75;;;;;21.71;100.00;98983.63;6282871;27;97057;-62
2023/08/13 00:14:11;;;;;;;;;14.75;14.00;;;;;21.69;100.00;98976.78;6281013;27;96756;-62
2023/08/13 00:17:14;;;;;;;;;16.00;14.20;;;;;21.61;100.00;98991.94;6305503;27;96458;-62
2023/08/13 00:20:18;;;;;;;;;15.60;14.60;;;;;21.60;100.00;98996.63;6314790;27;96359;-62
2023/08/13 00:23:21;;;;;;;;;15.00;14.00;;;;;21.61;100.00;98995.50;6316184;27;96573;-62
2023/08/13 00:26:26;;;;;;;;;16.50;15.00;;;;;21.56;100.00;98997.50;6289145;27;96500;-62
2023/08/13 00:29:30;;;;;;;;;16.00;16.00;;;;;21.53;100.00;98998.91;6286170;27;98452;-62
2023/08/13 00:32:33;;;;;;;;;17.40;15.00;;;;;21.51;100.00;99003.03;6297832;27;97062;-62
2023/08/13 00:35:36;;;;;;;;;16.00;15.00;;;;;21.52;100.00;98997.25;6275850;27;98540;-62
2023/08/13 00:38:40;;;;;;;;;15.40;13.80;;;;;21.42;100.00;98991.06;6290126;27;96512;-62
2023/08/13 00:41:44;;;;;;;;;15.60;15.00;;;;;21.24;100.00;98989.06;6297965;27;96665;-62
2023/08/13 00:44:48;;;;;;;;;14.80;14.20;;;;;21.19;100.00;99003.63;6265574;27;98587;-62
2023/08/13 00:47:54;;;;;;;;;16.40;15.00;;;;;21.14;100.00;99004.50;6312563;27;96282;-62
2023/08/13 00:50:57;;;;;;;;;17.00;16.00;;;;;21.15;100.00;98997.91;6280440;27;97195;-62
2023/08/13 00:54:01;;;;;;;;;14.40;14.00;;;;;21.14;100.00;99007.25;6315002;27;96937;-62
2023/08/13 00:57:06;;;;;;;;;14.00;13.00;;;;;21.12;100.00;99009.41;6296156;27;98522;-62
2023/08/13 01:00:11;;;;;;;;;13.75;13.75;;;;;21.12;100.00;99009.41;6296304;27;96867;-62
2023/08/13 01:03:15;;;;;;;;;14.20;13.00;;;;;21.14;100.00;99012.72;6295967;27;96334;-62
2023/08/13 01:06:27;;;;;;;;;15.20;14.20;;;;;21.12;100.00;99012.16;6314662;27;96369;-62
2023/08/13 01:09:38;;;;;;;;;19.00;16.00;;;;;21.10;100.00;99013.56;6294715;27;96311;-62
2023/08/13 01:12:49;;;;;;;;;15.80;14.00;;;;;21.10;100.00;99016.28;6284231;27;96831;-62
2023/08/13 01:15:54;;;;;;;;;14.00;13.00;;;;;21.08;100.00;99013.84;6309865;27;96335;-62
2023/08/13 01:18:57;;;;;;;;;14.60;13.60;;;;;21.05;100.00;99019.91;6304182;27;96368;-62
2023/08/13 01:22:01;;;;;;;;;13.00;12.00;;;;;21.03;100.00;99022.09;6297175;27;96303;-62
2023/08/13 01:25:09;;;;;;;;;14.50;13.00;;;;;20.97;100.00;99025.16;6270922;27;98462;-62
2023/08/13 01:28:22;;;;;;;;;13.00;12.50;;;;;20.90;100.00;99021.94;6254921;27;96870;-62
2023/08/13 01:31:29;;;;;;;;;14.40;14.00;;;;;20.87;100.00;99026.03;6307459;27;96874;-62
2023/08/13 01:34:32;;;;;;;;;13.25;12.00;;;;;20.84;100.00;99036.78;6278465;27;96979;-62
2023/08/13 01:37:36;;;;;;;;;17.50;15.50;;;;;20.83;100.00;99029.66;6279791;27;97514;-62
2023/08/13 01:40:40;;;;;;;;;14.60;14.00;;;;;20.77;100.00;99023.38;6288617;27;96273;-62
2023/08/13 01:43:44;;;;;;;;;14.00;12.00;;;;;20.86;100.00;99021.69;6284038;27;96439;-62
2023/08/13 01:46:47;;;;;;;;;14.40;13.40;;;;;20.91;100.00;99018.91;6286778;27;98536;-62
2023/08/13 01:49:51;;;;;;;;;11.00;10.80;;;;;20.95;100.00;99022.72;6288767;27;96739;-62
2023/08/13 01:52:54;;;;;;;;;13.25;13.00;;;;;20.99;100.00;99026.53;6287377;27;96292;-62
2023/08/13 01:55:58;;;;;;;;;14.00;13.00;;;;;21.09;100.00;99031.09;6318756;27;96291;-62
2023/08/13 01:59:02;;;;;;;;;14.20;13.80;;;;;21.15;100.00;99033.56;6273935;27;96873;-62
2023/08/13 02:02:05;;;;;;;;;14.00;14.00;;;;;21.23;100.00;99031.28;6298873;27;97072;-62
2023/08/13 02:05:08;;;;;;;;;13.80;12.20;;;;;21.35;100.00;99018.03;6299713;27;96345;-62
2023/08/13 02:08:12;;;;;;;;;15.00;13.00;;;;;21.45;100.00;99023.41;6274386;27;96688;-62
2023/08/13 02:11:16;;;;;;;;;13.00;12.75;;;;;21.52;100.00;99034.84;6300529;27;96617;-62
2023/08/13 02:14:19;;;;;;;;;12.00;12.00;;;;;21.59;100.00;99033.41;6298875;27;96657;-63
2023/08/13 02:17:23;;;;;;;;;13.50;12.50;;;;;21.72;100.00;99028.34;6278333;27;98382;-63
2023/08/13 02:20:26;;;;;;;;;14.00;14.00;;;;;21.82;100.00;99034.53;6317983;27;96756;-63
2023/08/13 02:23:31;;;;;;;;;13.00;12.00;;;;;21.83;100.00;99022.47;6300353;27;96357;-63
2023/08/13 02:26:36;;;;;;;;;13.20;12.80;;;;;21.86;100.00;99024.59;6298749;27;96811;-63
2023/08/13 02:29:39;;;;;;;;;12.50;12.50;;;;;21.91;100.00;99035.53;6311786;27;96301;-63
2023/08/13 02:32:42;;;;;;;;;12.00;12.00;;;;;21.92;100.00;99033.59;6329016;27;96393;-63
2023/08/13 02:35:46;;;;;;;;;12.20;12.20;;;;;21.95;100.00;99042.09;6299969;27;96303;-63
2023/08/13 02:38:49;;;;;;;;;12.75;12.75;;;;;21.96;100.00;99031.94;6306590;27;98667;-63
2023/08/13 02:41:54;;;;;;;;;13.50;12.00;;;;;21.96;100.00;99040.16;6291592;27;96666;-63
2023/08/13 02:44:57;;;;;;;;;12.80;12.00;;;;;22.02;100.00;99034.34;6283754;27;96358;-63
2023/08/13 02:48:00;;;;;;;;;13.00;12.00;;;;;22.07;100.00;99038.13;6289706;27;98404;-63
2023/08/13 02:51:04;;;;;;;;;10.00;10.00;;;;;22.09;100.00;99035.91;6285709;27;97419;-63
2023/08/13 02:54:07;;;;;;;;;14.50;12.00;;;;;22.11;100.00;99019.94;6298966;27;96758;-63
2023/08/13 02:57:12;;;;;;;;;10.60;10.60;;;;;22.14;100.00;99019.38;6298622;27;96265;-63
2023/08/13 03:00:16;;;;;;;;;14.40;13.40;;;;;22.21;100.00;99014.34;6279292;27;96373;-63
2023/08/13 03:03:19;;;;;;;;;13.00;12.00;;;;;22.20;100.00;99013.50;6297470;27;96375;-63
2023/08/13 03:06:24;;;;;;;;;12.40;11.40;;;;;22.17;100.00;99014.13;6318290;27;96279;-63
2023/08/13 03:09:28;;;;;;;;;11.00;11.00;;;;;22.20;100.00;99018.19;6317670;27;96332;-63
2023/08/13 03:12:32;;;;;;;;;11.00;9.60;;;;;22.27;100.00;99024.97;6288521;27;96306;-63
2023/08/13 03:15:36;;;;;;;;;11.00;10.00;;;;;22.36;100.00;99025.94;6295670;27;96416;-63
2023/08/13 03:18:41;;;;;;;;;11.00;9.50;;;;;22.45;100.00;99026.91;6298775;27;96284;-63
2023/08/13 03:21:49;;;;;;;;;12.50;11.25;;;;;22.55;100.00;99028.69;6299513;27;96410;-63
2023/08/13 03:24:52;;;;;;;;;10.00;10.00;;;;;22.60;100.00;99030.56;6282107;27;98598;-63
2023/08/13 03:27:57;;;;;;;;;10.50;10.50;;;;;22.66;100.00;99038.44;6298436;27;96788;-63
2023/08/13 03:31:03;;;;;;;;;9.00;9.00;;;;;22.77;100.00;99050.16;6293757;27;97015;-63
2023/08/13 03:34:17;;;;;;;;;11.40;11.00;;;;;22.74;100.00;99056.22;6311517;27;96267;-62
2023/08/13 03:37:20;;;;;;;;;9.40;8.80;;;;;22.77;100.00;99050.16;6279154;27;97253;-63
2023/08/13 03:40:24;;;;;;;;;10.60;10.40;;;;;22.77;100.00;99056.44;6294216;27;97192;-63
2023/08/13 03:43:29;;;;;;;;;15.00;13.50;;;;;22.74;100.00;99051.53;6316989;27;96367;-63
2023/08/13 03:46:33;;;;;;;;;11.00;11.00;;;;;22.68;100.00;99058.19;6315144;27;96346;-63
2023/08/13 03:49:37;;;;;;;;;13.75;13.00;;;;;22.61;100.00;99052.25;6315337;27;96392;-63
2023/08/13 03:52:41;;;;;;;;;12.00;11.00;;;;;22.54;100.00;99057.28;6298325;27;96609;-63
2023/08/13 03:55:45;;;;;;;;;11.20;10.80;;;;;22.50;100.00;99061.75;6297499;27;96306;-63
2023/08/13 03:58:49;;;;;;;;;11.20;10.00;;;;;22.45;100.00;99062.63;6298865;27;96348;-63
2023/08/13 04:01:53;;;;;;;;;11.80;11.00;;;;;22.44;100.00;99063.72;6297458;27;97690;-63
2023/08/13 04:04:58;;;;;;;;;13.00;12.00;;;;;22.42;100.00;99054.16;6297609;27;96222;-63
2023/08/13 04:08:01;;;;;;;;;12.80;11.40;;;;;22.40;100.00;99056.38;6312456;27;96354;-63
2023/08/13 04:11:04;;;;;;;;;11.60;11.20;;;;;22.39;100.00;99043.75;6281031;27;98519;-63
2023/08/13 04:14:09;;;;;;;;;11.60;11.60;;;;;22.41;100.00;99050.59;6294265;27;96980;-63
2023/08/13 04:17:12;;;;;;;;;12.00;11.20;;;;;22.36;100.00;99039.69;6263179;27;96907;-63
2023/08/13 04:20:16;;;;;;;;;10.40;9.60;;;;;22.42;100.00;99043.19;6288883;27;96550;-63
2023/08/13 04:23:19;;;;;;;;;11.00;10.60;;;;;22.53;100.00;99039.16;6313566;27;96752;-63
2023/08/13 04:26:24;;;;;;;;;10.50;10.50;;;;;22.66;100.00;99037.63;6281809;27;98479;-63
2023/08/13 04:29:32;;;;;;;;;10.00;10.00;;;;;22.82;100.00;99044.56;6292741;27;96439;-63
2023/08/13 04:32:38;;;;;;;;;10.00;10.00;;;;;22.95;100.00;99043.00;6314685;27;96650;-63
2023/08/13 04:35:42;;;;;;;;;9.40;9.40;;;;;23.11;100.00;99031.47;6280577;27;96906;-63
2023/08/13 04:38:45;;;;;;;;;9.60;9.00;;;;;23.33;100.00;99039.06;6284657;27;96367;-63
2023/08/13 04:41:48;;;;;;;;;11.60;11.00;;;;;23.52;100.00;99039.03;6277717;27;98663;-63
2023/08/13 04:44:55;;;;;;;;;9.00;8.00;;;;;23.62;100.00;99042.41;6298802;27;96686;-63
2023/08/13 04:47:58;;;;;;;;;8.20;8.20;;;;;23.69;100.00;99042.84;6279330;27;98433;-63
2023/08/13 04:51:01;;;;;;;;;9.25;9.00;;;;;23.90;100.00;99051.50;6280266;27;96671;-63
2023/08/13 04:54:05;;;;;;;;;9.40;9.00;;;;;24.06;100.00;99054.78;6296461;27;97113;-63
2023/08/13 04:57:08;;;;;;;;;9.40;9.00;;;;;24.15;100.00;99051.00;6279470;27;99111;-63
2023/08/13 05:00:15;;;;;;;;;8.00;7.00;;;;;24.32;100.00;99047.69;6261264;27;96756;-63
2023/08/13 05:03:21;;;;;;;;;9.00;8.50;;;;;24.54;100.00;99050.50;6277041;27;97282;-63
2023/08/13 05:06:25;;;;;;;;;9.20;8.20;;;;;24.70;100.00;99058.44;6301757;27;96350;-63
2023/08/13 05:09:31;;;;;;;;;8.75;8.25;;;;;24.81;100.00;99051.56;6294574;27;96278;-63
2023/08/13 05:12:35;;;;;;;;;10.00;9.33;;;;;24.94;100.00;99048.78;6286587;27;96670;-63
2023/08/13 05:15:39;;;;;;;;;7.80;7.80;;;;;25.05;100.00;99045.78;6302949;27;96266;-63
2023/08/13 05:18:43;;;;;;;;;9.00;9.00;;;;;25.06;100.00;99036.38;6322460;27;96164;-63
2023/08/13 05:21:46;;;;;;;;;6.20;6.20;;;;;25.19;100.00;99041.03;6305621;27;96297;-64
2023/08/13 05:24:49;;;;;;;;;10.25;10.00;;;;;25.21;100.00;99047.06;6296459;27;96542;-63
2023/08/13 05:27:53;;;;;;;;;9.00;9.00;;;;;25.30;100.00;99050.69;6292674;27;96923;-63
2023/08/13 05:30:58;;;;;;;;;8.00;8.00;;;;;25.42;100.00;99056.44;6286369;27;96686;-63
2023/08/13 05:34:01;;;;;;;;;9.00;8.40;;;;;25.54;100.00;99064.97;6297002;27;96566;-63
2023/08/13 05:37:05;;;;;;;;;7.00;6.20;;;;;25.67;100.00;99061.34;6303784;27;96317;-63
2023/08/13 05:40:10;;;;;;;;;9.00;8.50;;;;;25.85;100.00;99062.25;6321927;27;96313;-63
2023/08/13 05:43:14;;;;;;;;;7.00;7.00;;;;;25.94;100.00;99060.34;6321713;27;98651;-63
2023/08/13 05:46:20;;;;;;;;;7.20;6.20;;;;;25.93;100.00;99049.59;6304141;27;96835;-63
2023/08/13 05:49:23;;;;;;;;;9.00;8.60;;;;;26.11;100.00;99063.16;6320295;27;96701;-63
2023/08/13 05:52:28;;;;;;;;;7.00;7.00;;;;;26.19;100.00;99062.38;6265805;27;97217;-63
2023/08/13 05:55:31;;;;;;;;;7.40;7.40;;;;;26.27;100.00;99061.63;6314730;27;96721;-63
2023/08/13 05:58:34;;;;;;;;;9.00;8.00;;;;;26.40;100.00;99056.28;6277589;27;97269;-63
2023/08/13 06:01:39;;;;;;;;;8.00;8.00;;;;;26.41;100.00;99044.91;6319881;27;96353;-63
2023/08/13 06:04:42;;;;;;;;;8.00;8.00;;;;;26.43;100.00;99059.25;6311937;27;96327;-63
2023/08/13 06:07:45;;;;;;;;;8.75;8.75;;;;;26.43;100.00;99063.97;6317135;27;96358;-63
2023/08/13 06:10:48;;;;;;;;;7.00;7.00;;;;;26.63;100.00;99060.59;6321407;27;96394;-63
2023/08/13 06:13:52;;;;;;;;;7.80;7.80;;;;;26.81;100.00;99065.00;6318475;27;96389;-63
2023/08/13 06:16:56;;;;;;;;;7.50;7.00;;;;;26.84;100.00;99064.34;6298318;27;96455;-63
2023/08/13 06:20:17;;;;;;;;;8.40;8.00;;;;;26.97;100.00;99070.91;6308693;27;96348;-63
2023/08/13 06:23:20;;;;;;;;;8.20;7.00;;;;;27.09;100.00;99068.28;6320478;27;96307;-63
2023/08/13 06:26:24;;;;;;;;;9.60;8.60;;;;;27.25;100.00;99071.38;6319850;27;96452;-63
2023/08/13 06:29:27;;;;;;;;;9.00;9.00;;;;;27.38;100.00;99076.72;6314091;27;96900;-63
2023/08/13 06:32:31;;;;;;;;;7.00;7.00;;;;;27.45;100.00;99079.84;6307336;27;96379;-63
2023/08/13 06:35:35;;;;;;;;;7.00;7.00;;;;;27.49;100.00;99080.84;6296317;27;96747;-63
2023/08/13 06:38:38;;;;;;;;;8.25;8.25;;;;;27.67;100.00;99069.69;6311572;27;96365;-63
2023/08/13 06:41:41;;;;;;;;;7.00;6.00;;;;;27.77;100.00;99084.03;6285334;27;96905;-63
2023/08/13 06:44:45;;;;;;;;;11.00;9.60;;;;;27.97;100.00;99077.75;6319833;27;96376;-64
2023/08/13 06:47:49;;;;;;;;;7.80;7.00;;;;;28.19;100.00;99070.38;6316848;27;96479;-64
2023/08/13 06:50:54;;;;;;;;;7.00;7.00;;;;;28.34;100.00;99080.91;6306940;27;96366;-64
2023/08/13 06:53:58;;;;;;;;;10.00;8.60;;;;;28.63;100.00;99080.09;6313726;27;96516;-63
2023/08/13 06:57:01;;;;;;;;;8.00;7.25;;;;;28.89;100.00;99077.16;6317378;27;96341;-63
2023/08/13 07:00:06;;;;;;;;;7.25;7.00;;;;;29.19;100.00;99085.06;6293454;27;96393;-63
2023/08/13 07:03:11;;;;;;;;;8.00;8.00;;;;;29.38;100.00;99083.78;6297378;27;97432;-63
2023/08/13 07:06:15;;;;;;;;;7.25;7.25;;;;;29.54;100.00;99082.84;6311549;27;96715;-65
2023/08/13 07:09:19;;;;;;;;;7.60;7.60;;;;;29.74;100.00;99095.06;6311519;27;96937;-64
2023/08/13 07:12:22;;;;;;;;;8.00;7.50;;;;;29.83;100.00;99092.97;6299794;27;96850;-64
2023/08/13 07:15:25;;;;;;;;;5.40;5.40;;;;;30.03;100.00;99096.88;6315637;27;99118;-64
2023/08/13 07:18:30;;;;;;;;;7.00;7.00;;;;;30.21;100.00;99097.47;6291344;27;96413;-63
2023/08/13 07:21:33;;;;;;;;;7.40;7.00;;;;;30.37;100.00;99099.22;6313061;27;96694;-64
2023/08/13 07:24:37;;;;;;;;;6.00;6.00;;;;;30.59;100.00;99097.19;6300236;27;96865;-63
2023/08/13 07:27:40;;;;;;;;;6.00;5.00;;;;;30.62;100.00;99088.94;6301044;27;97307;-63
2023/08/13 07:30:44;;;;;;;;;8.00;8.00;;;;;30.89;100.00;99084.59;6317855;27;96366;-64
2023/08/13 07:33:49;;;;;;;;;5.00;5.00;;;;;31.08;100.00;99087.63;6300644;27;96341;-63
2023/08/13 07:36:53;;;;;;;;;4.40;4.00;;;;;31.21;100.00;99096.75;6318586;27;96440;-63
2023/08/13 07:39:57;;;;;;;;;6.00;6.00;;;;;31.22;100.00;99090.00;6296331;27;96384;-64
2023/08/13 07:43:00;;;;;;;;;5.00;5.00;;;;;31.33;100.00;99088.31;6272555;27;98442;-63
2023/08/13 07:46:03;;;;;;;;;5.00;4.00;;;;;31.12;100.00;99099.66;6317871;27;96504;-63
2023/08/13 07:49:08;;;;;;;;;7.00;7.00;;;;;31.19;100.00;99099.06;6318710;27;96336;-64
2023/08/13 07:52:11;;;;;;;;;5.00;4.60;;;;;31.38;99.89;99096.44;6301916;27;96310;-64
2023/08/13 07:55:14;;;;;;;;;5.00;5.00;;;;;31.59;100.00;99091.50;6317644;27;96431;-64
2023/08/13 07:58:18;;;;;;;;;4.75;4.75;;;;;31.77;100.00;99092.78;6318015;27;96477;-64
2023/08/13 08:01:21;;;;;;;;;7.00;7.00;;;;;31.95;99.82;99093.28;6317129;27;96493;-64
2023/08/13 08:04:26;;;;;;;;;4.00;4.00;;;;;32.30;96.62;99093.41;6299211;27;98508;-63
2023/08/13 08:07:29;;;;;;;;;5.60;5.60;;;;;32.66;94.47;99084.75;6298108;27;98527;-64
2023/08/13 08:10:32;;;;;;;;;5.40;5.40;;;;;32.83;90.37;99086.34;6317102;27;96413;-63
2023/08/13 08:13:36;;;;;;;;;5.00;5.00;;;;;32.87;86.55;99092.81;6280918;27;97122;-64
2023/08/13 08:16:39;;;;;;;;;4.00;3.00;;;;;32.96;90.37;99089.81;6317627;27;96344;-64
2023/08/13 08:19:44;;;;;;;;;4.40;4.40;;;;;33.18;93.16;99082.75;6317138;27;96789;-64
2023/08/13 08:22:47;;;;;;;;;5.00;5.00;;;;;33.17;88.05;99087.50;6291561;27;96686;-64
2023/08/13 08:25:50;;;;;;;;;4.25;4.00;;;;;33.49;90.09;99088.97;6300124;27;96303;-63
2023/08/13 08:28:53;;;;;;;;;5.00;5.00;;;;;33.53;89.00;99089.03;6290634;27;97167;-63
2023/08/13 08:31:56;;;;;;;;;4.00;4.00;;;;;33.84;87.34;99090.88;6316112;27;96422;-63
2023/08/13 08:35:01;;;;;;;;;5.40;5.00;;;;;34.12;90.03;99091.38;6292416;27;96216;-63
2023/08/13 08:38:04;;;;;;;;;4.20;4.20;;;;;34.10;82.91;99085.38;6317704;27;96316;-63
2023/08/13 08:41:09;;;;;;;;;4.00;3.00;;;;;34.12;81.12;99085.78;6320054;27;96333;-63
2023/08/13 08:44:19;;;;;;;;;6.00;6.00;;;;;34.33;79.74;99082.56;6281491;27;96231;-63
2023/08/13 08:47:23;;;;;;;;;5.20;4.20;;;;;34.43;80.76;99081.94;6315890;27;96415;-63
2023/08/13 08:50:29;;;;;;;;;5.50;4.50;;;;;34.13;81.94;99089.38;6304726;27;96287;-64
2023/08/13 08:53:34;;;;;;;;;4.00;3.00;;;;;33.82;81.46;99070.84;6299893;27;96228;-64
2023/08/13 08:56:37;;;;;;;;;4.40;4.40;;;;;33.94;82.66;99073.47;6322889;27;96395;-64
2023/08/13 08:59:41;;;;;;;;;5.00;5.00;;;;;34.03;79.83;99079.63;6304846;27;96247;-64
2023/08/13 09:02:44;;;;;;;;;4.80;4.80;;;;;33.99;80.51;99070.38;6322866;27;96313;-64
2023/08/13 09:05:49;;;;;;;;;4.00;4.00;;;;;33.93;82.60;99069.06;6287979;27;96666;-64
2023/08/13 09:08:53;;;;;;;;;6.00;6.00;;;;;34.15;84.47;99067.44;6308363;27;96559;-64
2023/08/13 09:11:57;;;;;;;;;5.60;5.00;;;;;34.32;77.98;99069.75;6321071;27;96369;-63
2023/08/13 09:15:05;;;;;;;;;6.00;5.40;;;;;34.65;77.98;99072.66;6287282;27;96752;-64
2023/08/13 09:18:08;;;;;;;;;5.00;5.00;;;;;34.68;78.47;99071.16;6323245;27;96332;-63
2023/08/13 09:21:13;;;;;;;;;5.00;5.00;;;;;34.90;82.79;99061.03;6322733;27;97025;-63
2023/08/13 09:24:16;;;;;;;;;5.00;5.00;;;;;35.20;75.04;99068.31;6296868;27;96360;-64
2023/08/13 09:27:20;;;;;;;;;6.00;6.00;;;;;35.45;78.17;99067.78;6287989;27;96708;-64
2023/08/13 09:30:28;;;;;;;;;6.00;5.00;;;;;35.64;75.01;99076.03;6322396;27;96320;-64
2023/08/13 09:33:33;;;;;;;;;5.00;5.00;;;;;35.58;73.97;99063.53;6299184;27;97703;-64
2023/08/13 09:36:39;;;;;;;;;4.80;4.80;;;;;35.50;76.03;99073.88;6278584;27;96849;-64
2023/08/13 09:39:42;;;;;;;;;5.00;4.60;;;;;35.66;79.93;99070.06;6318214;27;96494;-64
2023/08/13 09:42:47;;;;;;;;;8.00;7.00;;;;;35.82;79.36;99063.03;6322231;27;97575;-63
2023/08/13 09:45:53;;;;;;;;;5.00;5.00;;;;;35.86;78.73;99063.88;6321963;27;96923;-64
2023/08/13 09:49:02;;;;;;;;;4.00;4.00;;;;;36.01;80.41;99067.63;6321336;27;96260;-64
2023/08/13 09:52:08;;;;;;;;;6.00;6.00;;;;;36.10;75.75;99058.88;6286099;27;97161;-63
2023/08/13 09:55:13;;;;;;;;;4.50;4.50;;;;;36.42;70.68;99054.34;6286499;27;96672;-64
2023/08/13 09:58:18;;;;;;;;;4.80;4.20;;;;;36.58;70.76;99054.88;6294656;27;97036;-64
2023/08/13 10:01:22;;;;;;;;;6.00;6.00;;;;;36.66;70.18;99041.69;6312774;27;96349;-64
2023/08/13 10:04:26;;;;;;;;;4.00;4.00;;;;;36.75;73.08;99034.53;6307137;27;96353;-64
2023/08/13 10:07:32;;;;;;;;;6.00;6.00;;;;;37.11;69.17;99043.19;6318403;27;96141;-64
2023/08/13 10:10:37;;;;;;;;;5.00;4.50;;;;;37.29;67.89;99055.28;6304147;27;96393;-64
2023/08/13 10:13:40;;;;;;;;;4.60;4.60;;;;;37.43;63.79;99055.38;6297785;27;96815;-64
2023/08/13 10:16:44;;;;;;;;;6.00;6.00;;;;;37.40;64.52;99053.34;6322161;27;96287;-64
2023/08/13 10:19:50;;;;;;;;;6.00;6.00;;;;;37.36;63.36;99057.34;6311030;27;96581;-64
2023/08/13 10:22:55;;;;;;;;;5.00;5.00;;;;;37.43;68.47;99049.75;6272176;27;98530;-64
2023/08/13 10:25:58;;;;;;;;;5.00;5.00;;;;;37.25;67.39;99048.84;6296018;27;96352;-64
2023/08/13 10:29:14;;;;;;;;;7.00;6.60;;;;;37.17;70.19;99047.22;6303132;27;98529;-64
2023/08/13 10:32:17;;;;;;;;;6.00;6.00;;;;;37.05;66.32;99053.97;6313370;27;96462;-64
2023/08/13 10:35:23;;;;;;;;;6.60;6.00;;;;;37.08;64.56;99049.59;6294010;27;97939;-64
2023/08/13 10:38:34;;;;;;;;;7.00;6.00;;;;;37.09;68.73;99048.41;6300693;27;98546;-63
2023/08/13 10:41:37;;;;;;;;;8.00;7.00;;;;;37.15;69.19;99047.63;6299442;27;96691;-63
2023/08/13 10:44:41;;;;;;;;;7.00;6.50;;;;;37.36;68.87;99048.91;6303858;27;97424;-64
2023/08/13 10:47:50;;;;;;;;;6.00;6.00;;;;;37.46;64.71;99042.50;6321073;27;96337;-64
2023/08/13 10:50:55;;;;;;;;;7.00;7.00;;;;;37.22;63.14;99050.47;6309756;27;97381;-64
2023/08/13 10:54:01;;;;;;;;;5.00;5.00;;;;;37.22;69.66;99049.66;6305858;27;96254;-64
2023/08/13 10:57:05;;;;;;;;;5.60;5.40;;;;;37.44;66.94;99045.72;6286724;27;96721;-64
2023/08/13 11:00:14;;;;;;;;;5.80;5.20;;;;;37.60;64.45;99046.19;6299808;27;96339;-64
2023/08/13 11:03:22;;;;;;;;;6.00;5.40;;;;;37.63;64.05;99036.94;6319924;27;96347;-64
2023/08/13 11:06:27;;;;;;;;;6.40;6.40;;;;;37.79;64.58;99032.94;6294703;27;96291;-63
2023/08/13 11:09:33;;;;;;;;;7.00;6.40;;;;;37.74;62.40;99026.53;6301819;27;98931;-64
2023/08/13 11:12:39;;;;;;;;;8.00;7.75;;;;;37.49;65.68;99028.44;6300178;27;96213;-64
2023/08/13 11:15:49;;;;;;;;;6.00;6.00;;;;;37.38;63.87;99036.06;6320771;27;96336;-64
2023/08/13 11:18:52;;;;;;;;;6.80;6.80;;;;;37.46;66.54;99034.06;6295064;27;96409;-63
2023/08/13 11:21:56;;;;;;;;;6.00;6.00;;;;;37.65;66.09;99019.66;6320247;27;97016;-63
2023/08/13 11:25:01;;;;;;;;;5.00;5.00;;;;;37.69;65.02;99024.09;6287385;27;97041;-64
2023/08/13 11:28:05;;;;;;;;;7.00;6.00;;;;;37.55;60.80;99023.28;6307789;27;96333;-64
2023/08/13 11:31:08;;;;;;;;;8.00;7.60;;;;;37.62;63.73;99023.28;6312763;27;96911;-64
2023/08/13 11:34:11;;;;;;;;;5.20;5.00;;;;;37.72;63.86;99023.31;6302768;27;96660;-64
2023/08/13 11:37:14;;;;;;;;;7.20;7.00;;;;;37.83;65.62;99025.34;6294407;27;98371;-64
2023/08/13 11:40:19;;;;;;;;;7.00;6.00;;;;;37.90;62.45;99031.78;6320741;27;96666;-64
2023/08/13 11:43:22;;;;;;;;;6.25;5.75;;;;;37.93;62.79;99030.16;6302811;27;96299;-64
2023/08/13 11:46:25;;;;;;;;;6.40;6.00;;;;;38.01;62.49;99035.44;6320595;27;96371;-64
2023/08/13 11:49:29;;;;;;;;;8.00;8.00;;;;;38.14;64.58;99033.81;6320316;27;97168;-64
2023/08/13 11:52:32;;;;;;;;;5.00;5.00;;;;;38.23;56.30;99032.59;6302587;27;96448;-63
2023/08/13 11:55:39;;;;;;;;;5.40;5.40;;;;;37.89;52.98;99023.72;6319988;27;96334;-64
2023/08/13 11:58:42;;;;;;;;;5.60;5.00;;;;;37.69;54.53;99021.28;6320556;27;96810;-63
2023/08/13 12:01:51;;;;;;;;;5.20;5.00;;;;;37.56;55.24;99019.25;6296675;27;96985;-63
2023/08/13 12:04:55;;;;;;;;;4.40;4.00;;;;;37.42;57.63;99020.00;6268062;27;97100;-64
2023/08/13 12:07:59;;;;;;;;;6.00;5.00;;;;;37.46;57.90;99014.38;6293786;27;96233;-64
2023/08/13 12:11:09;;;;;;;;;6.00;6.00;;;;;37.54;60.79;99010.41;6293505;27;96242;-64
2023/08/13 12:14:12;;;;;;;;;6.00;5.20;;;;;37.71;57.28;99012.47;6281002;27;96310;-64
2023/08/13 12:17:15;;;;;;;;;5.00;4.50;;;;;37.78;57.62;99014.47;6274531;27;97300;-64
2023/08/13 12:20:18;;;;;;;;;5.40;5.00;;;;;37.88;55.88;99019.28;6267860;27;96326;-64
2023/08/13 12:23:21;;;;;;;;;6.00;6.00;;;;;37.86;57.42;99013.28;6304195;27;96244;-64
2023/08/13 12:26:26;;;;;;;;;5.00;5.00;;;;;37.73;60.54;99010.84;6266269;28;96292;-64
2023/08/13 12:29:30;;;;;;;;;7.00;6.00;;;;;37.74;64.22;99012.44;6269962;27;98606;-64
2023/08/13 12:32:33;;;;;;;;;6.00;5.60;;;;;37.91;63.94;99016.50;6276345;27;96347;-64
2023/08/13 12:35:36;;;;;;;;;6.00;5.25;;;;;38.07;64.28;99010.50;6275927;27;97529;-63
2023/08/13 12:38:40;;;;;;;;;6.00;6.00;;;;;38.05;59.62;98999.66;6272134;27;98786;-64
2023/08/13 12:41:46;;;;;;;;;5.00;5.00;;;;;38.23;62.72;99007.25;6264465;27;96889;-64
2023/08/13 12:44:50;;;;;;;;;5.80;5.40;;;;;38.40;60.45;99000.81;6261888;27;96872;-64
2023/08/13 12:47:53;;;;;;;;;6.40;6.00;;;;;38.58;61.27;99004.44;6308374;27;96346;-64
2023/08/13 12:50:56;;;;;;;;;6.40;6.40;;;;;38.53;55.87;99011.28;6290744;27;97240;-64
2023/08/13 12:53:59;;;;;;;;;5.50;5.50;;;;;38.10;56.59;99001.25;6281057;27;96279;-64
2023/08/13 12:57:04;;;;;;;;;5.25;5.25;;;;;38.05;61.24;99008.09;6289634;27;96318;-64
2023/08/13 13:00:09;;;;;;;;;6.00;5.40;;;;;38.17;63.85;98996.41;6296277;27;96280;-64
2023/08/13 13:03:13;;;;;;;;;4.00;4.00;;;;;38.29;61.61;98992.38;6293083;27;96355;-64
2023/08/13 13:06:16;;;;;;;;;6.00;5.00;;;;;38.44;60.86;98993.19;6266455;27;96574;-63
2023/08/13 13:09:20;;;;;;;;;4.00;4.00;;;;;38.63;60.28;98989.13;6291855;27;96334;-64
2023/08/13 13:12:25;;;;;;;;;6.00;5.00;;;;;38.36;57.77;98929.63;6283257;27;96340;-64
2023/08/13 13:15:28;;;;;;;;;6.00;6.00;;;;;38.82;60.12;98986.63;6275715;27;96223;-64
2023/08/13 13:18:31;;;;;;;;;7.00;7.00;;;;;38.66;57.46;98991.91;6282251;27;96247;-63
2023/08/13 13:21:34;;;;;;;;;7.00;6.50;;;;;38.47;58.47;98986.72;6284222;27;96242;-63
2023/08/13 13:24:37;;;;;;;;;5.40;4.00;;;;;38.41;57.84;98979.91;6262978;27;96618;-64
2023/08/13 13:27:42;;;;;;;;;6.25;6.25;;;;;38.50;60.29;98977.50;6274755;27;96426;-63
2023/08/13 13:30:45;;;;;;;;;6.00;6.00;;;;;38.64;60.34;98976.63;6285307;27;96363;-63
2023/08/13 13:33:49;;;;;;;;;6.20;6.20;;;;;38.80;59.99;98977.81;6280392;27;96273;-63
2023/08/13 13:36:52;;;;;;;;;6.00;6.00;;;;;38.90;60.26;98970.56;6296407;27;96317;-64
2023/08/13 13:39:56;;;;;;;;;6.40;5.40;;;;;38.68;59.51;98971.78;6272972;27;98580;-64
2023/08/13 13:43:00;;;;;;;;;6.75;6.75;;;;;38.75;59.71;98969.78;6269551;27;97404;-63
2023/08/13 13:46:04;;;;;;;;;5.50;5.50;;;;;38.84;59.43;98955.22;6280159;27;96246;-63
2023/08/13 13:49:07;;;;;;;;;5.00;5.00;;;;;39.04;60.84;98962.03;6263084;27;96775;-63
2023/08/13 13:52:10;;;;;;;;;8.25;7.00;;;;;38.93;59.40;98964.88;6278003;27;96729;-63
2023/08/13 13:55:16;;;;;;;;;6.00;5.00;;;;;38.84;60.13;98963.69;6293514;27;96337;-63
2023/08/13 13:58:20;;;;;;;;;5.40;5.40;;;;;38.79;58.77;98953.66;6281238;27;96345;-64
2023/08/13 14:01:23;;;;;;;;;8.00;7.00;;;;;38.72;61.06;98950.84;6275362;27;96866;-64
2023/08/13 14:04:27;;;;;;;;;8.40;7.80;;;;;38.54;58.63;98961.38;6279361;27;96331;-64
2023/08/13 14:07:30;;;;;;;;;7.00;7.00;;;;;38.45;60.07;98958.19;6296788;27;96357;-63
2023/08/13 14:10:34;;;;;;;;;7.00;6.60;;;;;38.48;60.05;98960.97;6262179;27;97262;-63
2023/08/13 14:13:38;;;;;;;;;5.00;5.00;;;;;38.33;61.31;98955.75;6279052;27;98530;-64
2023/08/13 14:16:42;;;;;;;;;7.00;7.00;;;;;38.37;63.12;98965.00;6278479;27;98423;-63